Estación de Coihueco
Ultimos registro cada 15 minutos 45
| N° | Estación | Fecha / Hora | Temperatura | Humedad | Lluvia | Velocidad | Dirección | Radiación | Presion |
| 45 | Coihueco | 10-05-2026 11:00 | 12,3 | 69,5 | 0 | 0 | 244 | 465,6 | 990,4 |
| 44 | Coihueco | 10-05-2026 10:45 | 11,3 | 73,5 | 0 | 0 | 234 | 438,1 | 990,7 |
| 43 | Coihueco | 10-05-2026 10:30 | 10 | 76,6 | 0 | 0 | 239 | 411,9 | 990,8 |
| 42 | Coihueco | 10-05-2026 10:15 | 8,3 | 83,6 | 0 | 0,5 | 240 | 378,1 | 991 |
| 41 | Coihueco | 10-05-2026 10:00 | 7,9 | 83,9 | 0 | 0 | 240 | 346,9 | 990,9 |
| 40 | Coihueco | 10-05-2026 09:45 | 6,3 | 89,1 | 0 | 1 | 251 | 313,1 | 990,9 |
| 39 | Coihueco | 10-05-2026 09:30 | 5,5 | 92,5 | 0 | 0,5 | 264 | 279,4 | 990,9 |
| 38 | Coihueco | 10-05-2026 09:15 | 4,8 | 94 | 0 | 0 | 264 | 246,9 | 990,9 |
| 37 | Coihueco | 10-05-2026 09:00 | 5,2 | 93 | 0 | 0 | 264 | 211,9 | 991 |
| 36 | Coihueco | 10-05-2026 08:45 | 2,9 | 96,4 | 0 | 0 | 264 | 176,9 | 991 |
| 35 | Coihueco | 10-05-2026 08:30 | 2,2 | 99,6 | 0 | 0 | 264 | 130,6 | 991 |
| 34 | Coihueco | 10-05-2026 08:15 | 0,9 | 100 | 0 | 0 | 264 | 70,6 | 991,1 |
| 33 | Coihueco | 10-05-2026 08:00 | 0,2 | 100 | 0 | 0 | 264 | 13,1 | 991 |
| 32 | Coihueco | 10-05-2026 07:45 | -0,9 | 100 | 0 | 0 | 264 | 6,9 | 990,9 |
| 31 | Coihueco | 10-05-2026 07:30 | -1 | 100 | 0 | 0 | 264 | 1,9 | 990,7 |
| 30 | Coihueco | 10-05-2026 07:15 | -1 | 100 | 0 | 0 | 264 | 0,6 | 990,7 |
| 29 | Coihueco | 10-05-2026 07:00 | -0,8 | 100 | 0 | 0 | 264 | 0,6 | 990,6 |
| 28 | Coihueco | 10-05-2026 06:45 | 0,1 | 100 | 0 | 0 | 264 | 0,6 | 990,7 |
| 27 | Coihueco | 10-05-2026 06:30 | -0,1 | 100 | 0 | 0 | 264 | 0,6 | 990,7 |
| 26 | Coihueco | 10-05-2026 06:15 | -0,6 | 100 | 0 | 0 | 264 | 0,6 | 990,7 |
| 25 | Coihueco | 10-05-2026 06:00 | -0,4 | 100 | 0 | 0 | 264 | 0,6 | 990,7 |
| 24 | Coihueco | 10-05-2026 05:45 | -0,4 | 100 | 0 | 0 | 264 | 0,6 | 990,5 |
| 23 | Coihueco | 10-05-2026 05:30 | 0,2 | 100 | 0 | 0 | 264 | 0,6 | 990,3 |
| 22 | Coihueco | 10-05-2026 05:15 | -0,2 | 100 | 0 | 0 | 264 | 0,6 | 990,3 |
| 21 | Coihueco | 10-05-2026 05:00 | -0,6 | 100 | 0 | 0 | 264 | 0,6 | 990,4 |
| 20 | Coihueco | 10-05-2026 04:45 | -1,1 | 100 | 0 | 0 | 264 | 0,6 | 990,4 |
| 19 | Coihueco | 10-05-2026 04:30 | 0 | 100 | 0 | 0 | 264 | 0,6 | 990,6 |
| 18 | Coihueco | 10-05-2026 04:15 | -0,4 | 99,3 | 0 | 0 | 264 | 0,6 | 990,4 |
| 17 | Coihueco | 10-05-2026 04:00 | 1,6 | 100 | 0 | 0 | 264 | 0,6 | 990,3 |
| 16 | Coihueco | 10-05-2026 03:45 | 1,1 | 100 | 0 | 0 | 264 | 0,6 | 990,3 |
| 15 | Coihueco | 10-05-2026 03:30 | 0,4 | 100 | 0 | 0 | 264 | 0,6 | 990,4 |
| 14 | Coihueco | 10-05-2026 03:15 | -0,6 | 100 | 0 | 0 | 264 | 0,6 | 990,5 |
| 13 | Coihueco | 10-05-2026 03:00 | 0,5 | 100 | 0 | 0 | 264 | 0,6 | 990,8 |
| 12 | Coihueco | 10-05-2026 02:45 | 0,7 | 100 | 0 | 0 | 264 | 0,6 | 990,9 |
| 11 | Coihueco | 10-05-2026 02:30 | 1,6 | 100 | 0 | 0 | 264 | 0,6 | 991 |
| 10 | Coihueco | 10-05-2026 02:15 | 1,3 | 99,8 | 0 | 0 | 264 | 0,6 | 991 |
| 9 | Coihueco | 10-05-2026 02:00 | 0,8 | 100 | 0 | 0 | 264 | 0,6 | 991,3 |
| 8 | Coihueco | 10-05-2026 01:45 | 1,6 | 99,2 | 0 | 0 | 264 | 0,6 | 991,3 |
| 7 | Coihueco | 10-05-2026 01:30 | 1,4 | 98,2 | 0 | 0,5 | 264 | 0,6 | 991,2 |
| 6 | Coihueco | 10-05-2026 01:15 | 2,1 | 96,8 | 0 | 0 | 264 | 0,6 | 991,6 |
| 5 | Coihueco | 10-05-2026 01:00 | 3,4 | 98,4 | 0 | 0 | 264 | 0,6 | 991,8 |
| 4 | Coihueco | 10-05-2026 00:45 | 4,5 | 98,9 | 0 | 0 | 264 | 0,6 | 992 |
| 3 | Coihueco | 10-05-2026 00:30 | 4,3 | 98,7 | 0 | 0 | 264 | 0,6 | 992,2 |
| 2 | Coihueco | 10-05-2026 00:15 | 3,9 | 98,4 | 0 | 0 | 264 | 0,6 | 992,2 |
| 1 | Coihueco | 10-05-2026 00:00 | 4,9 | 99 | 0 | 0 | 264 | 0,6 | 992,2 |